Time;durP1;ratioP1;P1;durP2;ratioP2;P2;SDS_P1;SDS_P2;PMS_P1;PMS_P2;Temp;Humidity;BMP_temperature;BMP_pressure;BME280_temperature;BME280_humidity;BME280_pressure;Samples;Min_cycle;Max_cycle;Signal;HPM_P1;HPM_P2
2022/03/30 00:01:12;;;;;;;86.10;56.35;;;18.00;55.70;;;;;;4992626;28;90590;-34
2022/03/30 00:03:37;;;;;;;86.70;56.55;;;17.90;55.70;;;;;;5001744;28;89185;-35
2022/03/30 00:06:04;;;;;;;86.22;56.65;;;17.90;55.70;;;;;;4995081;28;89980;-39
2022/03/30 00:08:30;;;;;;;85.75;56.63;;;17.90;55.70;;;;;;4993121;28;89969;-37
2022/03/30 00:10:56;;;;;;;86.40;56.38;;;17.90;55.70;;;;;;4980598;28;92571;-35
2022/03/30 00:13:22;;;;;;;84.18;56.08;;;17.90;55.70;;;;;;4996363;28;90571;-38
2022/03/30 00:15:48;;;;;;;85.53;56.20;;;17.90;55.80;;;;;;4993748;28;89622;-33
2022/03/30 00:18:14;;;;;;;85.22;56.30;;;17.90;55.80;;;;;;4999333;28;89525;-37
2022/03/30 00:20:40;;;;;;;84.85;56.63;;;17.80;55.80;;;;;;4997136;28;90101;-38
2022/03/30 00:23:06;;;;;;;83.88;55.58;;;17.80;55.90;;;;;;4989043;28;91442;-34
2022/03/30 00:25:31;;;;;;;83.80;55.65;;;17.80;55.80;;;;;;4997524;28;90198;-36
2022/03/30 00:27:57;;;;;;;85.00;55.88;;;17.80;55.90;;;;;;4990405;28;89271;-37
2022/03/30 00:30:23;;;;;;;84.05;55.80;;;17.80;55.80;;;;;;4988975;28;94159;-34
2022/03/30 00:32:49;;;;;;;85.35;56.03;;;17.80;55.90;;;;;;4998721;28;89847;-32
2022/03/30 00:35:15;;;;;;;86.63;56.05;;;17.80;55.90;;;;;;4994689;27;91628;-35
2022/03/30 00:37:41;;;;;;;83.78;55.45;;;17.80;55.90;;;;;;4988001;28;92555;-35
2022/03/30 00:40:10;;;;;;;86.43;56.00;;;17.80;56.00;;;;;;4985118;28;90106;-35
2022/03/30 00:42:36;;;;;;;85.82;56.80;;;17.70;55.90;;;;;;4986189;28;91399;-33
2022/03/30 00:45:12;;;;;;;83.68;55.17;;;17.70;56.00;;;;;;4997628;28;90080;-33
2022/03/30 00:47:39;;;;;;;84.93;55.88;;;17.70;56.00;;;;;;4994023;28;89676;-33
2022/03/30 00:50:06;;;;;;;85.45;56.10;;;17.70;56.10;;;;;;4992242;28;89959;-37
2022/03/30 00:52:32;;;;;;;83.97;55.72;;;17.70;56.00;;;;;;4990456;28;90104;-34
2022/03/30 00:54:58;;;;;;;83.72;55.90;;;17.70;56.00;;;;;;4993779;27;89919;-35
2022/03/30 00:57:24;;;;;;;85.30;56.33;;;17.70;56.00;;;;;;4996755;28;89767;-32
2022/03/30 00:59:50;;;;;;;84.88;55.90;;;17.70;56.00;;;;;;4988409;28;92372;-37
2022/03/30 01:02:17;;;;;;;84.40;55.67;;;17.60;56.00;;;;;;5000366;27;90279;-37
2022/03/30 01:04:46;;;;;;;84.85;56.00;;;17.60;56.10;;;;;;4997163;28;90347;-37
2022/03/30 01:07:13;;;;;;;84.65;56.00;;;17.60;56.10;;;;;;4991703;28;89796;-39
2022/03/30 01:09:38;;;;;;;85.30;55.90;;;17.60;56.10;;;;;;4982455;28;90767;-37
2022/03/30 01:12:04;;;;;;;85.25;56.17;;;17.60;56.00;;;;;;4996340;28;89830;-34
2022/03/30 01:14:31;;;;;;;85.53;55.72;;;17.60;56.10;;;;;;4996717;28;90061;-35
2022/03/30 01:16:57;;;;;;;84.03;55.80;;;17.60;56.20;;;;;;4988924;28;91001;-39
2022/03/30 01:19:28;;;;;;;84.85;55.83;;;17.50;56.10;;;;;;4992495;28;90971;-34
2022/03/30 01:21:54;;;;;;;83.68;55.53;;;17.50;56.10;;;;;;4995956;28;91708;-37
2022/03/30 01:24:20;;;;;;;85.15;55.58;;;17.50;56.20;;;;;;4993522;28;90709;-35
2022/03/30 01:26:45;;;;;;;84.85;56.42;;;17.50;56.50;;;;;;4991937;28;89773;-36
2022/03/30 01:34:41;;;;;;;84.60;55.85;;;17.50;56.20;;;;;;4999107;28;90065;-37
2022/03/30 01:37:08;;;;;;;85.47;55.85;;;17.40;56.20;;;;;;4990025;28;89519;-35
2022/03/30 01:39:34;;;;;;;83.47;55.30;;;17.50;56.20;;;;;;4987881;28;90753;-35
2022/03/30 01:42:00;;;;;;;83.90;55.22;;;17.40;56.20;;;;;;4981968;28;93568;-33
2022/03/30 01:44:26;;;;;;;84.45;55.35;;;17.40;56.20;;;;;;4984361;28;90309;-40
2022/03/30 01:46:52;;;;;;;84.20;55.85;;;17.40;56.20;;;;;;4994820;28;89806;-37
2022/03/30 01:49:21;;;;;;;83.45;55.55;;;17.40;56.30;;;;;;4989357;28;91552;-35
2022/03/30 01:51:51;;;;;;;83.93;55.13;;;17.40;56.30;;;;;;4991870;28;90888;-34
2022/03/30 01:54:18;;;;;;;82.68;55.13;;;17.40;56.30;;;;;;4978601;28;91478;-35
2022/03/30 01:56:44;;;;;;;83.50;55.67;;;17.30;56.20;;;;;;4984197;28;90501;-37
2022/03/30 01:59:10;;;;;;;83.70;55.30;;;17.30;56.30;;;;;;4981750;28;96394;-38
2022/03/30 02:01:37;;;;;;;85.82;56.17;;;17.30;56.30;;;;;;4995373;27;90790;-35
2022/03/30 02:04:03;;;;;;;84.00;55.35;;;17.30;56.30;;;;;;4994812;28;89451;-33
2022/03/30 02:06:29;;;;;;;84.93;56.03;;;17.30;56.30;;;;;;5001247;28;94387;-35
2022/03/30 02:08:54;;;;;;;83.72;55.53;;;17.30;56.30;;;;;;4988178;28;90605;-37
2022/03/30 02:11:20;;;;;;;83.57;55.22;;;17.30;56.40;;;;;;4989041;28;92124;-38
2022/03/30 02:13:45;;;;;;;84.13;55.35;;;17.30;56.40;;;;;;4987847;28;92955;-41
2022/03/30 02:16:11;;;;;;;84.97;55.80;;;17.30;56.30;;;;;;5001029;28;90001;-38
2022/03/30 02:18:38;;;;;;;83.85;55.65;;;17.30;56.30;;;;;;4996477;28;90229;-32
2022/03/30 02:21:04;;;;;;;84.85;56.63;;;17.30;56.30;;;;;;4985737;28;89779;-36
2022/03/30 02:23:30;;;;;;;83.75;55.72;;;17.30;56.30;;;;;;4996893;28;89667;-34
2022/03/30 02:25:56;;;;;;;82.35;55.13;;;17.20;56.20;;;;;;4993755;28;90058;-36
2022/03/30 02:28:21;;;;;;;82.88;54.75;;;17.20;56.30;;;;;;4994626;28;89988;-33
2022/03/30 02:30:47;;;;;;;84.63;55.58;;;17.20;56.40;;;;;;4986708;28;89743;-34
2022/03/30 02:33:13;;;;;;;84.93;55.67;;;17.20;56.40;;;;;;4991535;28;91047;-36
2022/03/30 02:35:39;;;;;;;82.57;55.28;;;17.20;56.40;;;;;;4989947;28;90238;-36
2022/03/30 02:38:04;;;;;;;84.82;55.72;;;17.20;56.40;;;;;;4996535;28;90841;-32
2022/03/30 02:40:30;;;;;;;83.35;55.13;;;17.20;56.40;;;;;;4980096;28;91371;-34
2022/03/30 02:42:56;;;;;;;83.55;55.35;;;17.20;56.30;;;;;;4983919;27;92138;-39
2022/03/30 02:45:21;;;;;;;83.20;55.45;;;17.20;56.40;;;;;;4993218;28;89897;-36
2022/03/30 02:50:31;;;;;;;83.70;55.47;;;17.20;56.50;;;;;;4991099;28;89922;-37
2022/03/30 02:52:57;;;;;;;83.78;55.22;;;17.10;56.40;;;;;;4991661;28;89951;-37
2022/03/30 02:55:23;;;;;;;84.47;55.90;;;17.10;56.40;;;;;;4989778;28;91038;-35
2022/03/30 02:57:48;;;;;;;84.22;55.45;;;17.10;56.50;;;;;;4989574;28;94405;-40
2022/03/30 03:00:15;;;;;;;83.75;55.67;;;17.10;56.60;;;;;;4998155;28;90899;-44
2022/03/30 03:02:41;;;;;;;83.50;55.50;;;17.10;56.50;;;;;;4998562;28;90937;-36
2022/03/30 03:05:07;;;;;;;83.07;55.00;;;17.10;56.50;;;;;;4998981;28;94921;-38
2022/03/30 03:07:33;;;;;;;84.25;55.80;;;17.10;56.50;;;;;;5001082;28;90615;-39
2022/03/30 03:09:59;;;;;;;84.43;55.40;;;17.10;56.50;;;;;;4986670;28;89924;-34
2022/03/30 03:12:24;;;;;;;84.30;55.90;;;17.10;56.50;;;;;;4992884;28;90677;-35
2022/03/30 03:14:50;;;;;;;83.18;55.40;;;17.10;56.50;;;;;;4994765;27;89725;-38
2022/03/30 03:17:15;;;;;;;82.88;55.08;;;17.10;56.50;;;;;;4985310;28;90344;-33
2022/03/30 03:19:42;;;;;;;82.72;55.25;;;17.10;56.40;;;;;;4991139;28;94551;-35
2022/03/30 03:22:08;;;;;;;82.03;54.60;;;17.10;56.40;;;;;;4999321;28;89844;-39
2022/03/30 03:24:33;;;;;;;83.13;55.42;;;17.20;56.40;;;;;;4997380;28;89783;-35
2022/03/30 03:26:59;;;;;;;82.68;55.22;;;17.20;56.30;;;;;;4996219;28;91029;-38
2022/03/30 03:29:26;;;;;;;82.28;55.35;;;17.20;56.30;;;;;;4991353;27;90285;-45
2022/03/30 03:31:51;;;;;;;81.88;54.70;;;17.20;56.20;;;;;;4987221;28;90223;-50
2022/03/30 03:34:17;;;;;;;84.00;55.55;;;17.20;56.10;;;;;;4994145;28;90331;-32
2022/03/30 03:36:43;;;;;;;83.20;55.65;;;17.20;56.20;;;;;;4991720;28;90661;-34
2022/03/30 03:39:08;;;;;;;84.35;55.15;;;17.20;56.10;;;;;;4991830;28;96287;-36
2022/03/30 03:41:34;;;;;;;83.15;55.63;;;17.20;56.00;;;;;;4988664;28;90167;-39
2022/03/30 03:44:00;;;;;;;83.93;55.33;;;17.30;56.00;;;;;;4985894;27;92756;-37
2022/03/30 03:46:25;;;;;;;82.47;54.97;;;17.30;56.00;;;;;;4992263;28;90790;-39
2022/03/30 03:48:51;;;;;;;83.32;55.50;;;17.30;56.00;;;;;;4994881;28;90833;-31
2022/03/30 03:51:17;;;;;;;81.97;55.03;;;17.30;55.80;;;;;;5002592;28;90728;-36
2022/03/30 03:53:43;;;;;;;82.80;55.33;;;17.30;55.90;;;;;;4996402;28;89667;-34
2022/03/30 03:56:08;;;;;;;83.00;55.42;;;17.30;55.90;;;;;;4995813;28;90356;-33
2022/03/30 03:58:34;;;;;;;82.25;55.05;;;17.30;55.90;;;;;;4994018;28;91338;-35
2022/03/30 04:01:00;;;;;;;82.43;55.20;;;17.30;55.80;;;;;;4994469;28;90313;-38
2022/03/30 04:03:25;;;;;;;83.65;55.83;;;17.20;55.80;;;;;;4996103;28;91513;-36
2022/03/30 04:05:51;;;;;;;83.13;54.95;;;17.20;55.80;;;;;;4990098;28;90841;-38
2022/03/30 04:08:17;;;;;;;82.93;55.08;;;17.30;56.00;;;;;;5000852;28;89769;-35
2022/03/30 04:10:42;;;;;;;84.63;55.92;;;17.20;55.80;;;;;;4987778;28;89873;-34
2022/03/30 04:13:09;;;;;;;84.15;55.50;;;17.20;55.90;;;;;;4993543;28;89577;-36
2022/03/30 04:15:35;;;;;;;83.68;55.65;;;17.30;56.10;;;;;;4981714;28;95922;-35
2022/03/30 04:18:03;;;;;;;82.80;55.33;;;17.30;55.90;;;;;;4988575;28;92372;-38
2022/03/30 04:20:29;;;;;;;81.57;54.78;;;17.40;55.90;;;;;;4993322;28;91075;-34
2022/03/30 04:22:55;;;;;;;83.35;54.90;;;17.40;55.70;;;;;;4998533;28;90087;-33
2022/03/30 04:25:21;;;;;;;81.47;54.85;;;17.50;55.80;;;;;;4990427;28;90359;-36
2022/03/30 04:27:49;;;;;;;82.57;55.38;;;17.50;55.60;;;;;;4998558;28;90040;-36
2022/03/30 04:30:16;;;;;;;83.97;55.25;;;17.60;55.70;;;;;;4992750;28;92053;-37
2022/03/30 04:32:43;;;;;;;83.53;55.92;;;17.60;56.30;;;;;;4989839;28;92132;-35
2022/03/30 04:35:09;;;;;;;83.05;55.08;;;17.60;55.40;;;;;;4991063;28;91381;-38
2022/03/30 04:37:34;;;;;;;82.55;55.08;;;17.70;55.50;;;;;;4991865;28;90166;-35
2022/03/30 04:40:00;;;;;;;81.63;54.78;;;17.70;55.30;;;;;;4985370;28;91999;-35
2022/03/30 04:42:26;;;;;;;82.85;55.20;;;17.80;55.60;;;;;;4992250;28;89833;-37
2022/03/30 04:44:51;;;;;;;82.88;55.13;;;17.80;55.30;;;;;;4986667;28;90253;-38
2022/03/30 04:47:17;;;;;;;82.15;54.58;;;17.90;55.90;;;;;;4999706;28;90341;-32
2022/03/30 04:49:42;;;;;;;83.45;55.35;;;17.90;55.20;;;;;;4990488;28;93558;-35
2022/03/30 04:52:09;;;;;;;81.70;54.45;;;17.90;55.20;;;;;;4988504;28;90243;-36
2022/03/30 04:54:35;;;;;;;82.75;55.47;;;18.00;55.00;;;;;;4981936;28;90426;-36
2022/03/30 04:57:01;;;;;;;82.75;55.00;;;18.00;55.00;;;;;;4998708;28;89112;-35
2022/03/30 04:59:27;;;;;;;82.00;54.47;;;18.00;55.00;;;;;;4986012;28;91516;-34
2022/03/30 05:01:53;;;;;;;83.15;54.58;;;18.00;55.10;;;;;;4987988;28;89993;-35
2022/03/30 05:04:18;;;;;;;82.38;54.13;;;18.10;55.00;;;;;;4991525;28;92891;-40
2022/03/30 05:06:44;;;;;;;80.78;54.30;;;18.10;55.00;;;;;;4994055;28;90494;-38
2022/03/30 05:09:11;;;;;;;84.68;55.00;;;18.20;54.90;;;;;;4990408;28;89964;-36
2022/03/30 05:11:37;;;;;;;85.65;55.00;;;18.20;54.90;;;;;;4979500;28;91985;-37
2022/03/30 05:14:03;;;;;;;83.32;55.45;;;18.20;54.90;;;;;;4983762;28;89750;-38
2022/03/30 05:16:28;;;;;;;84.22;55.28;;;18.30;55.00;;;;;;4989356;28;90304;-39
2022/03/30 05:18:54;;;;;;;86.40;55.88;;;18.30;54.80;;;;;;4989241;28;89487;-38
2022/03/30 05:21:19;;;;;;;88.53;56.50;;;18.30;54.90;;;;;;4969936;28;89623;-36
2022/03/30 05:23:45;;;;;;;85.93;56.28;;;18.30;54.80;;;;;;4961333;28;89826;-38
2022/03/30 05:26:11;;;;;;;88.32;56.38;;;18.30;54.80;;;;;;4970946;28;90167;-38
2022/03/30 05:28:38;;;;;;;85.65;55.60;;;18.40;55.10;;;;;;4969908;28;90773;-35
2022/03/30 05:31:06;;;;;;;89.05;55.97;;;18.40;55.00;;;;;;4971536;28;90339;-38
2022/03/30 05:33:31;;;;;;;87.20;56.33;;;18.40;55.00;;;;;;4970516;28;90238;-35
2022/03/30 05:35:57;;;;;;;87.22;55.70;;;18.40;55.00;;;;;;4962721;28;89528;-35
2022/03/30 05:38:24;;;;;;;86.88;55.92;;;18.40;54.90;;;;;;4944320;28;90110;-37
2022/03/30 05:40:50;;;;;;;85.90;56.50;;;18.50;54.90;;;;;;4953486;28;90666;-41
2022/03/30 05:43:17;;;;;;;86.40;55.17;;;18.50;54.80;;;;;;4960573;28;90892;-37
2022/03/30 05:45:43;;;;;;;89.90;55.65;;;18.50;55.10;;;;;;4964531;28;94287;-37
2022/03/30 05:48:09;;;;;;;90.25;56.40;;;18.60;55.10;;;;;;4969700;28;90424;-38
2022/03/30 05:50:35;;;;;;;85.60;56.08;;;18.60;54.80;;;;;;4970811;28;90349;-38
2022/03/30 05:53:01;;;;;;;86.05;56.38;;;18.60;54.80;;;;;;4972155;28;93204;-36
2022/03/30 05:55:27;;;;;;;85.35;56.38;;;18.60;54.80;;;;;;4961036;28;90396;-38
2022/03/30 05:57:52;;;;;;;90.80;56.88;;;18.60;54.90;;;;;;4978032;28;89806;-40
2022/03/30 06:00:18;;;;;;;90.13;56.10;;;18.60;54.90;;;;;;4969629;28;89817;-38
2022/03/30 06:02:44;;;;;;;88.75;57.35;;;18.60;54.90;;;;;;4972298;28;91056;-39
2022/03/30 06:05:10;;;;;;;87.43;56.50;;;18.60;55.10;;;;;;4962892;28;91592;-41
2022/03/30 06:07:36;;;;;;;90.43;58.22;;;18.70;55.00;;;;;;4972686;28;90855;-40
2022/03/30 06:10:02;;;;;;;94.53;58.85;;;18.90;55.60;;;;;;4960153;28;89515;-36
2022/03/30 06:12:27;;;;;;;89.20;58.35;;;19.00;54.40;;;;;;4974476;28;90425;-40
2022/03/30 06:14:53;;;;;;;93.68;58.55;;;19.00;54.10;;;;;;4949824;28;90212;-39
2022/03/30 06:17:20;;;;;;;94.00;58.33;;;19.20;53.80;;;;;;4969260;28;91038;-35
2022/03/30 06:19:48;;;;;;;90.72;57.80;;;19.30;53.70;;;;;;4977024;28;89856;-38
2022/03/30 06:22:14;;;;;;;91.40;57.78;;;19.40;53.20;;;;;;4991449;28;89504;-35
2022/03/30 06:24:41;;;;;;;89.18;57.65;;;19.30;53.10;;;;;;4992463;28;90750;-40
2022/03/30 06:27:09;;;;;;;95.28;58.33;;;19.40;53.00;;;;;;4983852;28;92247;-40
2022/03/30 06:29:36;;;;;;;90.57;57.72;;;19.50;53.20;;;;;;4983387;28;92423;-41
2022/03/30 06:32:02;;;;;;;90.40;57.33;;;19.60;53.30;;;;;;4986406;28;90568;-39
2022/03/30 06:34:28;;;;;;;92.03;57.17;;;19.70;53.20;;;;;;4991690;28;89832;-39
2022/03/30 06:36:54;;;;;;;96.32;58.28;;;19.80;52.80;;;;;;4976190;27;92245;-37
2022/03/30 06:39:19;;;;;;;92.72;58.58;;;19.90;52.50;;;;;;4971171;27;92350;-38
2022/03/30 06:41:45;;;;;;;97.22;59.03;;;19.90;52.20;;;;;;4955372;28;91868;-44
2022/03/30 06:44:11;;;;;;;90.50;57.72;;;19.90;52.20;;;;;;4968095;28;91619;-44
2022/03/30 06:46:38;;;;;;;98.13;58.25;;;19.90;52.10;;;;;;4961625;28;90209;-38
2022/03/30 06:49:10;;;;;;;92.57;57.65;;;19.90;52.20;;;;;;4975594;28;90240;-41
2022/03/30 06:51:35;;;;;;;90.32;57.60;;;19.90;52.10;;;;;;4966818;28;90138;-39
2022/03/30 06:54:02;;;;;;;88.72;57.08;;;19.90;52.00;;;;;;4971637;28;89752;-40
2022/03/30 06:56:27;;;;;;;93.90;58.22;;;19.90;51.90;;;;;;4972074;28;92140;-40
2022/03/30 06:58:54;;;;;;;90.47;57.15;;;19.90;51.90;;;;;;4970492;28;90974;-42
2022/03/30 07:01:20;;;;;;;88.72;56.75;;;19.90;51.90;;;;;;4962885;27;91119;-41
2022/03/30 07:03:46;;;;;;;88.90;57.13;;;19.90;51.90;;;;;;4976049;28;90423;-40
2022/03/30 07:06:11;;;;;;;92.60;57.25;;;19.80;51.80;;;;;;4971855;28;93497;-39
2022/03/30 07:11:22;;;;;;;90.47;57.20;;;19.80;51.80;;;;;;4964928;28;92570;-36
2022/03/30 07:13:48;;;;;;;89.75;57.08;;;19.80;51.80;;;;;;4972477;28;92055;-42
2022/03/30 07:16:14;;;;;;;91.65;57.83;;;19.80;51.90;;;;;;4966221;28;90119;-39
2022/03/30 07:18:40;;;;;;;91.47;56.67;;;19.80;51.90;;;;;;4971036;28;89655;-38
2022/03/30 07:21:05;;;;;;;87.18;56.47;;;19.70;51.80;;;;;;4974893;28;98531;-41
2022/03/30 07:23:31;;;;;;;88.57;56.55;;;19.70;51.80;;;;;;4965316;28;89872;-40
2022/03/30 07:26:00;;;;;;;89.20;56.38;;;19.70;51.90;;;;;;4974072;28;90328;-41
2022/03/30 07:28:26;;;;;;;90.57;57.20;;;19.70;51.80;;;;;;4975065;28;92655;-42
2022/03/30 07:30:53;;;;;;;91.22;57.05;;;19.70;51.80;;;;;;4980206;28;90911;-40
2022/03/30 07:33:20;;;;;;;88.32;56.78;;;19.70;51.90;;;;;;4970902;28;90884;-39
2022/03/30 07:35:46;;;;;;;87.80;56.33;;;19.60;52.00;;;;;;4969737;28;90741;-43
2022/03/30 07:38:16;;;;;;;89.47;56.85;;;19.60;52.00;;;;;;4966295;28;89924;-40
2022/03/30 07:40:45;;;;;;;90.28;56.97;;;19.60;52.00;;;;;;4966468;28;91233;-42
2022/03/30 07:43:12;;;;;;;86.88;56.13;;;19.60;52.00;;;;;;4962127;28;90922;-39
2022/03/30 07:45:38;;;;;;;88.55;56.67;;;19.60;52.00;;;;;;4981431;28;90701;-43
2022/03/30 07:48:05;;;;;;;89.45;56.10;;;19.50;52.00;;;;;;4993050;28;89199;-40
2022/03/30 07:50:31;;;;;;;88.18;56.53;;;19.50;52.00;;;;;;4985575;28;91165;-41
2022/03/30 07:52:57;;;;;;;90.25;56.35;;;19.50;52.00;;;;;;4965594;28;91538;-43
2022/03/30 07:55:24;;;;;;;88.70;56.50;;;19.50;52.00;;;;;;4963116;28;92234;-41
2022/03/30 07:57:50;;;;;;;88.55;56.47;;;19.40;51.90;;;;;;4974270;28;90002;-40
2022/03/30 08:00:17;;;;;;;90.75;56.40;;;19.40;51.90;;;;;;4975801;28;90617;-40
2022/03/30 08:02:44;;;;;;;89.28;56.08;;;19.50;51.90;;;;;;4965862;28;89994;-41
2022/03/30 08:05:12;;;;;;;88.93;56.63;;;19.40;51.90;;;;;;4978664;28;90544;-41
2022/03/30 08:07:43;;;;;;;87.85;56.10;;;19.40;51.90;;;;;;4976036;28;91348;-43
2022/03/30 08:10:09;;;;;;;94.07;56.00;;;19.40;52.00;;;;;;4973485;28;92005;-41
2022/03/30 08:12:42;;;;;;;89.75;56.60;;;19.40;51.90;;;;;;4975111;28;90015;-40
2022/03/30 08:15:08;;;;;;;87.68;56.55;;;19.40;51.90;;;;;;4969200;28;92457;-38
2022/03/30 08:17:38;;;;;;;88.97;56.20;;;19.40;52.00;;;;;;4980079;28;90065;-39
2022/03/30 08:20:04;;;;;;;87.43;55.97;;;19.40;52.10;;;;;;4967075;28;93063;-41
2022/03/30 08:22:30;;;;;;;90.50;56.22;;;19.40;52.10;;;;;;4969329;28;90871;-37
2022/03/30 08:25:00;;;;;;;86.13;55.55;;;19.40;52.10;;;;;;4975869;28;90023;-38
2022/03/30 08:27:29;;;;;;;87.53;56.67;;;19.40;52.10;;;;;;4975165;28;95236;-42
2022/03/30 08:29:56;;;;;;;87.22;55.95;;;19.40;52.10;;;;;;4981803;28;90128;-42
2022/03/30 08:32:23;;;;;;;88.65;56.00;;;19.40;52.10;;;;;;4975058;28;91516;-41
2022/03/30 08:34:50;;;;;;;87.25;55.92;;;19.40;52.10;;;;;;4975040;28;92904;-41
2022/03/30 08:37:16;;;;;;;87.65;55.90;;;19.50;52.10;;;;;;4975144;27;89048;-42
2022/03/30 08:39:42;;;;;;;88.00;55.70;;;19.50;52.00;;;;;;4972935;28;93040;-37
2022/03/30 08:42:09;;;;;;;88.32;56.63;;;19.60;52.00;;;;;;4972757;28;90813;-36
2022/03/30 08:44:36;;;;;;;86.85;55.90;;;19.60;51.90;;;;;;4964377;28;91352;-39
2022/03/30 08:47:03;;;;;;;87.63;55.53;;;19.60;51.90;;;;;;4975658;28;89605;-37
2022/03/30 08:49:35;;;;;;;88.28;55.97;;;19.60;51.70;;;;;;4973810;28;96759;-37
2022/03/30 08:52:02;;;;;;;88.18;55.97;;;19.70;51.80;;;;;;4968872;28;91512;-41
2022/03/30 08:54:28;;;;;;;90.93;55.72;;;19.70;51.70;;;;;;4970227;28;92937;-42
2022/03/30 08:56:54;;;;;;;89.90;56.35;;;19.70;51.60;;;;;;4973156;28;89652;-40
2022/03/30 08:59:22;;;;;;;87.88;56.15;;;19.80;51.60;;;;;;4959184;28;90162;-40
2022/03/30 09:01:49;;;;;;;89.57;56.03;;;19.80;51.60;;;;;;4975915;28;89403;-41
2022/03/30 09:04:18;;;;;;;86.95;55.10;;;19.80;51.40;;;;;;4963107;28;90151;-40
2022/03/30 09:06:58;;;;;;;87.43;55.70;;;19.80;51.40;;;;;;4975214;28;90274;-40
2022/03/30 09:09:35;;;;;;;92.03;55.90;;;19.80;51.40;;;;;;4965950;28;95686;-37
2022/03/30 09:12:11;;;;;;;87.13;55.42;;;19.80;51.40;;;;;;4965211;28;91283;-38
2022/03/30 09:14:39;;;;;;;88.07;55.42;;;19.80;51.40;;;;;;4975454;28;90096;-41
2022/03/30 09:17:07;;;;;;;90.43;55.85;;;19.80;51.40;;;;;;4964187;28;91091;-40
2022/03/30 09:19:38;;;;;;;87.38;56.15;;;19.80;51.40;;;;;;4956484;28;92604;-40
2022/03/30 09:22:06;;;;;;;89.32;55.88;;;19.90;51.40;;;;;;4952974;28;89846;-40
2022/03/30 09:24:38;;;;;;;88.22;55.88;;;19.90;51.30;;;;;;4957393;28;90163;-43
2022/03/30 09:27:07;;;;;;;87.97;55.40;;;19.90;51.40;;;;;;4950666;28;89067;-41
2022/03/30 09:29:36;;;;;;;87.78;55.75;;;19.90;51.30;;;;;;4958907;28;92296;-42
2022/03/30 09:32:08;;;;;;;88.90;56.35;;;20.00;51.20;;;;;;4954688;28;89957;-41
2022/03/30 09:34:45;;;;;;;87.28;55.80;;;20.00;51.20;;;;;;4951788;28;91741;-38
2022/03/30 09:37:11;;;;;;;87.85;55.90;;;20.00;51.10;;;;;;4956825;28;90078;-40
2022/03/30 09:39:38;;;;;;;88.72;55.83;;;20.00;51.60;;;;;;4958041;28;90152;-38
2022/03/30 09:42:05;;;;;;;87.70;55.63;;;20.10;51.00;;;;;;4944873;28;95458;-39
2022/03/30 09:44:47;;;;;;;88.20;55.58;;;20.10;50.90;;;;;;4953661;28;89588;-40
2022/03/30 09:47:13;;;;;;;88.10;55.63;;;20.10;50.90;;;;;;4960612;28;90013;-38
2022/03/30 09:49:49;;;;;;;86.88;55.50;;;20.10;50.90;;;;;;4953416;28;90066;-39
2022/03/30 09:52:24;;;;;;;86.93;55.00;;;20.10;50.90;;;;;;4948862;28;89463;-38
2022/03/30 09:54:53;;;;;;;88.30;55.28;;;20.20;50.90;;;;;;4942204;28;93864;-38
2022/03/30 09:57:26;;;;;;;87.50;55.22;;;20.20;50.90;;;;;;4955811;28;92498;-50
2022/03/30 10:00:02;;;;;;;89.93;55.63;;;20.20;50.70;;;;;;4948699;28;91509;-38
2022/03/30 10:02:48;;;;;;;88.55;55.50;;;20.20;50.60;;;;;;4950887;28;93091;-39
2022/03/30 10:05:19;;;;;;;88.03;55.65;;;20.30;50.60;;;;;;4954305;28;91800;-41
2022/03/30 10:07:45;;;;;;;87.13;55.15;;;20.30;50.60;;;;;;4953929;28;89871;-40
2022/03/30 10:10:13;;;;;;;87.00;55.45;;;20.30;50.60;;;;;;4942812;28;90906;-43
2022/03/30 10:12:39;;;;;;;88.38;55.53;;;20.30;50.50;;;;;;4943924;28;91543;-44
2022/03/30 10:15:07;;;;;;;87.60;55.78;;;20.30;50.50;;;;;;4941821;28;90377;-42
2022/03/30 10:17:33;;;;;;;90.45;55.53;;;20.30;50.50;;;;;;4952167;28;91382;-42
2022/03/30 10:20:01;;;;;;;90.38;55.85;;;20.30;50.30;;;;;;4959279;28;89601;-39
2022/03/30 10:23:04;;;;;;;90.80;55.67;;;20.40;50.40;;;;;;4979735;28;90150;-42
2022/03/30 10:26:05;;;;;;;90.65;55.50;;;20.50;50.30;;;;;;4963395;28;91543;-39
2022/03/30 10:28:40;;;;;;;89.00;55.63;;;20.60;50.10;;;;;;4951241;28;95102;-40
2022/03/30 10:31:06;;;;;;;91.30;55.97;;;20.60;50.10;;;;;;4960728;28;91646;-38
2022/03/30 10:33:44;;;;;;;89.10;55.80;;;20.60;49.90;;;;;;4974660;28;90495;-38
2022/03/30 10:36:26;;;;;;;92.18;56.13;;;20.70;50.10;;;;;;4976945;28;92106;-39
2022/03/30 10:39:17;;;;;;;96.47;55.92;;;20.80;50.10;;;;;;4969812;27;95645;-41
2022/03/30 10:41:50;;;;;;;93.95;56.20;;;20.80;50.00;;;;;;4960131;28;91797;-38
2022/03/30 10:44:35;;;;;;;91.43;55.58;;;20.90;50.10;;;;;;4974100;28;89883;-38
2022/03/30 10:47:16;;;;;;;92.45;56.20;;;20.90;50.20;;;;;;4972872;28;93243;-45
2022/03/30 10:49:47;;;;;;;92.32;55.83;;;21.00;50.10;;;;;;4963888;28;89830;-37
2022/03/30 10:52:35;;;;;;;90.20;56.05;;;21.00;49.80;;;;;;4967348;28;93670;-42
2022/03/30 10:55:12;;;;;;;91.43;56.03;;;21.00;49.80;;;;;;4969610;28;94832;-38
2022/03/30 10:57:49;;;;;;;91.15;56.55;;;21.00;49.70;;;;;;4964802;28;95547;-40
2022/03/30 11:00:19;;;;;;;90.97;56.15;;;;;;;;;;4966107;28;92129;-40
2022/03/30 11:02:45;;;;;;;92.00;56.17;;;21.10;48.90;;;;;;4961898;28;91232;-36
2022/03/30 11:05:13;;;;;;;92.35;56.35;;;21.10;49.40;;;;;;4963775;28;94928;-38
2022/03/30 11:07:39;;;;;;;91.72;56.70;;;21.10;49.40;;;;;;4967912;27;91323;-41
2022/03/30 11:10:24;;;;;;;91.95;56.55;;;21.10;49.30;;;;;;4961583;27;89085;-40
2022/03/30 11:13:11;;;;;;;94.40;56.90;;;21.10;49.20;;;;;;4961004;28;90511;-38
2022/03/30 11:16:07;;;;;;;92.68;56.15;;;21.20;49.20;;;;;;4965383;28;89944;-43
2022/03/30 11:18:34;;;;;;;92.95;56.38;;;21.30;49.10;;;;;;4969751;28;91539;-37
2022/03/30 11:21:18;;;;;;;91.28;56.33;;;21.40;49.10;;;;;;4970585;28;91887;-38
2022/03/30 11:23:55;;;;;;;93.50;56.35;;;21.40;49.20;;;;;;4949167;28;90707;-42
2022/03/30 11:26:44;;;;;;;93.03;56.13;;;21.50;49.40;;;;;;4963343;28;90064;-41
2022/03/30 11:29:45;;;;;;;94.13;56.30;;;21.50;49.30;;;;;;4957580;28;92073;-42
2022/03/30 11:32:19;;;;;;;90.95;56.08;;;21.60;49.40;;;;;;4947665;28;92694;-42
2022/03/30 11:34:49;;;;;;;92.80;55.85;;;21.60;49.50;;;;;;4964606;28;92634;-43
2022/03/30 11:37:16;;;;;;;92.27;55.90;;;21.70;49.60;;;;;;4963482;28;89363;-40
2022/03/30 11:39:42;;;;;;;93.60;55.85;;;21.70;49.70;;;;;;4960557;28;91087;-41
2022/03/30 11:42:08;;;;;;;91.32;55.97;;;21.60;49.70;;;;;;4935496;28;91291;-40
2022/03/30 11:47:25;;;;;;;94.30;55.85;;;21.70;49.40;;;;;;4945790;28;91836;-41
2022/03/30 11:49:52;;;;;;;94.95;55.97;;;21.70;49.10;;;;;;4944209;28;93162;-39
2022/03/30 11:52:18;;;;;;;91.68;56.15;;;21.70;49.10;;;;;;4942731;28;91532;-37
2022/03/30 11:54:52;;;;;;;92.07;56.28;;;21.60;48.90;;;;;;4941785;28;90550;-38
2022/03/30 11:57:19;;;;;;;90.10;55.90;;;21.60;48.80;;;;;;4942539;28;91284;-40
2022/03/30 12:00:00;;;;;;;92.35;55.75;;;21.70;48.80;;;;;;4936027;28;93814;-42
2022/03/30 12:02:26;;;;;;;91.03;55.78;;;21.70;48.80;;;;;;4939341;28;90710;-40
2022/03/30 12:04:53;;;;;;;90.68;55.83;;;21.70;48.70;;;;;;4928755;28;92598;-44
2022/03/30 12:07:19;;;;;;;90.40;56.05;;;21.70;49.10;;;;;;4936614;28;92566;-41
2022/03/30 12:09:49;;;;;;;92.45;56.38;;;21.70;48.60;;;;;;4944012;28;93825;-39
2022/03/30 12:12:49;;;;;;;92.50;56.75;;;21.70;48.40;;;;;;4923915;28;93103;-41
2022/03/30 12:15:18;;;;;;;93.13;56.75;;;21.70;48.30;;;;;;4925345;28;91707;-40
2022/03/30 12:17:53;;;;;;;88.25;55.53;;;21.70;48.30;;;;;;4936410;28;93169;-40
2022/03/30 12:20:31;;;;;;;91.93;56.63;;;21.80;48.20;;;;;;4940511;28;91195;-44
2022/03/30 12:23:09;;;;;;;91.50;55.75;;;21.80;48.20;;;;;;4952992;28;92400;-43
2022/03/30 12:25:39;;;;;;;88.80;55.97;;;21.80;48.20;;;;;;4968058;28;91670;-39
2022/03/30 12:28:06;;;;;;;90.78;56.17;;;21.80;48.20;;;;;;4968240;28;90325;-42
2022/03/30 12:30:34;;;;;;;92.03;56.17;;;21.80;48.00;;;;;;4971851;28;92112;-39
2022/03/30 12:33:00;;;;;;;92.32;56.20;;;21.80;48.10;;;;;;4968455;28;92063;-41
2022/03/30 12:35:33;;;;;;;89.88;56.00;;;21.80;48.00;;;;;;4959374;28;90981;-38
2022/03/30 12:38:12;;;;;;;89.82;55.85;;;21.80;47.90;;;;;;4966147;28;94245;-42
2022/03/30 12:40:40;;;;;;;92.53;56.20;;;21.80;47.90;;;;;;4956757;27;92035;-41
2022/03/30 12:43:07;;;;;;;89.85;56.25;;;21.80;47.90;;;;;;4949113;28;90534;-43
2022/03/30 12:45:32;;;;;;;91.85;55.65;;;21.80;47.80;;;;;;4967751;28;91330;-38
2022/03/30 12:48:02;;;;;;;89.15;55.75;;;21.80;47.80;;;;;;4965576;28;92892;-38